Time;durP1;ratioP1;P1;durP2;ratioP2;P2;SDS_P1;SDS_P2;PMS_P1;PMS_P2;Temp;Humidity;BMP_temperature;BMP_pressure;BME280_temperature;BME280_humidity;BME280_pressure;Samples;Min_cycle;Max_cycle;Signal;HPM_P1;HPM_P2
2022/02/23 00:01:54;;;;;;;3.45;1.10;;;;;;;-141.50;100.00;63355.56;4911273;29;20066;-78
2022/02/23 00:04:21;;;;;;;4.32;0.80;;;;;;;-141.50;100.00;63355.56;4913535;29;20465;-76
2022/02/23 00:06:48;;;;;;;2.20;0.90;;;;;;;-141.50;100.00;63355.56;4913661;29;20052;-75
2022/02/23 00:09:21;;;;;;;2.95;0.85;;;;;;;-141.50;100.00;63355.56;4917649;29;20091;-78
2022/02/23 00:11:47;;;;;;;4.22;0.98;;;;;;;-141.50;100.00;63355.56;4913691;29;20406;-76
2022/02/23 00:14:14;;;;;;;2.30;0.85;;;;;;;-141.50;100.00;63355.56;4912057;29;20048;-77
2022/02/23 00:16:41;;;;;;;2.90;0.80;;;;;;;-141.50;100.00;63355.56;4911283;29;20074;-76
2022/02/23 00:19:08;;;;;;;4.97;1.10;;;;;;;-141.50;100.00;63355.56;4911086;29;20066;-77
2022/02/23 00:21:35;;;;;;;3.63;0.70;;;;;;;-141.50;100.00;63355.56;4909680;29;20489;-77
2022/02/23 00:24:02;;;;;;;3.83;0.98;;;;;;;-141.50;100.00;63355.56;4911874;29;20060;-79
2022/02/23 00:26:28;;;;;;;4.88;1.10;;;;;;;-141.50;100.00;63355.56;4908009;29;20059;-79
2022/02/23 00:28:55;;;;;;;5.25;1.10;;;;;;;-141.50;100.00;63355.56;4910364;29;20434;-78
2022/02/23 00:31:22;;;;;;;5.28;1.10;;;;;;;-141.50;100.00;63355.56;4914108;29;20052;-77
2022/02/23 00:33:48;;;;;;;3.55;1.08;;;;;;;-141.50;100.00;63355.56;4916316;29;20052;-77
2022/02/23 00:36:15;;;;;;;4.05;1.20;;;;;;;-141.50;100.00;63355.56;4898580;29;20059;-77
2022/02/23 00:38:42;;;;;;;5.85;1.30;;;;;;;-141.50;100.00;63355.56;4914843;29;20056;-78
2022/02/23 00:41:08;;;;;;;6.63;1.10;;;;;;;-141.50;100.00;63355.56;4911162;29;20074;-78
2022/02/23 00:43:35;;;;;;;7.93;1.73;;;;;;;-141.50;100.00;63355.56;4914221;29;20480;-77
2022/02/23 00:46:02;;;;;;;7.20;1.15;;;;;;;-141.50;100.00;63355.56;4913857;29;20067;-76
2022/02/23 00:48:29;;;;;;;5.72;0.80;;;;;;;-141.50;100.00;63355.56;4914546;29;20081;-77
2022/02/23 00:50:55;;;;;;;5.90;0.82;;;;;;;-141.50;100.00;63355.56;4914744;29;20059;-79
2022/02/23 00:53:22;;;;;;;9.00;1.00;;;;;;;-141.50;100.00;63355.56;4913821;29;20052;-78
2022/02/23 00:55:51;;;;;;;6.88;1.27;;;;;;;-141.50;100.00;63355.56;4898325;29;20142;-78
2022/02/23 00:58:17;;;;;;;8.85;1.30;;;;;;;-141.50;100.00;63355.56;4913090;29;20212;-78
2022/02/23 01:00:44;;;;;;;7.65;1.50;;;;;;;-141.50;100.00;63355.56;4911871;29;20056;-77
2022/02/23 01:03:11;;;;;;;9.70;1.35;;;;;;;-141.50;100.00;63355.56;4913614;29;20071;-77
2022/02/23 01:05:37;;;;;;;4.32;1.10;;;;;;;-141.50;100.00;63355.56;4913849;29;20055;-77
2022/02/23 01:08:04;;;;;;;5.80;0.90;;;;;;;-141.50;100.00;63355.56;4913627;29;20074;-78
2022/02/23 01:10:31;;;;;;;8.05;1.63;;;;;;;-141.50;100.00;63355.56;4912647;29;20056;-76
2022/02/23 01:12:58;;;;;;;5.68;1.10;;;;;;;-141.50;100.00;63355.56;4914260;29;20056;-78
2022/02/23 01:15:26;;;;;;;8.00;1.40;;;;;;;-141.50;100.00;63355.56;4913889;29;20056;-76
2022/02/23 01:17:53;;;;;;;7.47;1.45;;;;;;;-141.50;100.00;63355.56;4915508;29;20111;-79
2022/02/23 01:20:20;;;;;;;8.55;1.02;;;;;;;-141.50;100.00;63355.56;4916034;29;20102;-79
2022/02/23 01:22:46;;;;;;;6.75;0.82;;;;;;;-141.50;100.00;63355.56;4916226;29;20062;-78
2022/02/23 01:25:13;;;;;;;5.00;1.10;;;;;;;-141.50;100.00;63355.56;4916213;29;20056;-78
2022/02/23 01:27:40;;;;;;;5.38;1.05;;;;;;;-141.50;100.00;63355.56;4913822;29;20047;-78
2022/02/23 01:30:08;;;;;;;6.60;1.10;;;;;;;-141.50;100.00;63355.56;4914322;29;20044;-76
2022/02/23 01:32:34;;;;;;;9.23;1.10;;;;;;;-141.50;100.00;63355.56;4918282;29;20040;-79
2022/02/23 01:35:01;;;;;;;10.02;1.20;;;;;;;-141.50;100.00;63355.56;4916623;29;20139;-78
2022/02/23 01:37:28;;;;;;;13.05;1.30;;;;;;;-141.50;100.00;63355.56;4915835;29;20098;-78
2022/02/23 01:39:54;;;;;;;4.72;1.00;;;;;;;-141.50;100.00;63355.56;4913454;29;20501;-78
2022/02/23 01:42:21;;;;;;;5.45;0.98;;;;;;;-141.50;100.00;63355.56;4897266;29;20062;-79
2022/02/23 01:44:48;;;;;;;5.93;1.05;;;;;;;-141.50;100.00;63355.56;4912674;29;20056;-78
2022/02/23 01:47:14;;;;;;;4.97;0.88;;;;;;;-141.50;100.00;63355.56;4914414;29;20460;-78
2022/02/23 01:49:41;;;;;;;8.15;1.13;;;;;;;-141.50;100.00;63355.56;4913770;29;20064;-78
2022/02/23 01:52:09;;;;;;;10.07;1.88;;;;;;;-141.50;100.00;63355.56;4912712;29;20288;-77
2022/02/23 01:54:36;;;;;;;6.50;1.02;;;;;;;-141.50;100.00;63355.56;4913399;29;20529;-78
2022/02/23 01:57:03;;;;;;;8.68;1.10;;;;;;;-141.50;100.00;63355.56;4913118;29;20056;-78
2022/02/23 01:59:30;;;;;;;4.13;0.98;;;;;;;-141.50;100.00;63355.56;4911207;29;20048;-78
2022/02/23 02:01:57;;;;;;;7.13;1.02;;;;;;;-141.50;100.00;63355.56;4912516;29;20142;-77
2022/02/23 02:04:25;;;;;;;10.88;1.30;;;;;;;-141.50;100.00;63355.56;4913070;29;20044;-79
2022/02/23 02:06:52;;;;;;;9.73;1.30;;;;;;;-141.50;100.00;63355.56;4912496;29;20063;-78
2022/02/23 02:09:18;;;;;;;15.15;1.75;;;;;;;-141.50;100.00;63355.56;4910982;29;20225;-78
2022/02/23 02:11:45;;;;;;;12.80;1.58;;;;;;;-141.50;100.00;63355.56;4911166;29;20052;-78
2022/02/23 02:14:12;;;;;;;9.02;1.40;;;;;;;-141.50;100.00;63355.56;4916490;29;20540;-77
2022/02/23 02:16:38;;;;;;;12.65;1.35;;;;;;;-141.50;100.00;63355.56;4916096;29;20057;-79
2022/02/23 02:19:06;;;;;;;7.60;1.10;;;;;;;-141.50;100.00;63355.56;4915457;29;20067;-77
2022/02/23 02:21:53;;;;;;;11.88;1.48;;;;;;;-141.50;100.00;63355.56;4918737;29;20063;-77
2022/02/23 02:24:22;;;;;;;12.10;1.30;;;;;;;-141.50;100.00;63355.56;4918622;29;20060;-78
2022/02/23 02:26:49;;;;;;;11.40;1.20;;;;;;;-141.50;100.00;63355.56;4910010;29;20063;-77
2022/02/23 02:29:16;;;;;;;16.02;1.58;;;;;;;-141.50;100.00;63355.56;4912552;29;20545;-78
2022/02/23 02:31:42;;;;;;;15.68;1.52;;;;;;;-141.50;100.00;63355.56;4911426;29;20436;-79
2022/02/23 02:34:09;;;;;;;9.60;1.30;;;;;;;-141.50;100.00;63355.56;4912132;29;20417;-78
2022/02/23 02:36:36;;;;;;;10.57;1.42;;;;;;;-141.50;100.00;63355.56;4913024;29;20059;-79
2022/02/23 02:39:05;;;;;;;10.77;1.58;;;;;;;-141.50;100.00;63355.56;4910915;29;20485;-79
2022/02/23 02:41:34;;;;;;;12.20;2.10;;;;;;;-141.50;100.00;63355.56;4910855;29;20051;-77
2022/02/23 02:44:01;;;;;;;9.88;1.55;;;;;;;-141.50;100.00;63355.56;4912551;29;20056;-78
2022/02/23 02:46:27;;;;;;;9.80;1.60;;;;;;;-141.50;100.00;63355.56;4913344;29;20420;-78
2022/02/23 02:48:55;;;;;;;10.65;1.60;;;;;;;-141.50;100.00;63355.56;4912505;29;20056;-78
2022/02/23 02:51:22;;;;;;;10.73;1.75;;;;;;;-141.50;100.00;63355.56;4910555;29;20514;-78
2022/02/23 02:53:49;;;;;;;13.48;1.90;;;;;;;-141.50;100.00;63355.56;4910849;29;20063;-78
2022/02/23 02:56:16;;;;;;;21.45;1.67;;;;;;;-141.50;100.00;63355.56;4910612;29;20064;-79
2022/02/23 02:58:43;;;;;;;9.05;1.73;;;;;;;-141.50;100.00;63355.56;4912075;29;20381;-79
2022/02/23 03:01:09;;;;;;;10.02;1.48;;;;;;;-141.50;100.00;63355.56;4912438;29;20052;-77
2022/02/23 03:03:36;;;;;;;13.25;1.35;;;;;;;-141.50;100.00;63355.56;4912050;29;20059;-78
2022/02/23 03:06:02;;;;;;;7.47;1.00;;;;;;;-141.50;100.00;63355.56;4911727;29;20537;-78
2022/02/23 03:08:29;;;;;;;12.60;1.30;;;;;;;-141.50;100.00;63355.56;4911604;29;20048;-78
2022/02/23 03:10:56;;;;;;;13.65;1.58;;;;;;;-141.50;100.00;63355.56;4911116;29;20168;-78
2022/02/23 03:13:22;;;;;;;16.05;1.60;;;;;;;-141.50;100.00;63355.56;4911269;29;20063;-78
2022/02/23 03:15:49;;;;;;;12.07;2.05;;;;;;;-141.50;100.00;63355.56;4912412;29;20056;-79
2022/02/23 03:18:16;;;;;;;11.52;2.05;;;;;;;-141.50;100.00;63355.56;4911714;29;20044;-79
2022/02/23 03:20:42;;;;;;;13.90;1.90;;;;;;;-141.50;100.00;63355.56;4910622;29;20079;-78
2022/02/23 03:23:09;;;;;;;12.80;1.80;;;;;;;-141.50;100.00;63355.56;4911254;29;20132;-78
2022/02/23 03:25:36;;;;;;;10.27;1.75;;;;;;;-141.50;100.00;63355.56;4909904;29;20051;-78
2022/02/23 03:28:03;;;;;;;14.07;1.52;;;;;;;-141.50;100.00;63355.56;4911285;29;20065;-78
2022/02/23 03:30:32;;;;;;;14.40;1.80;;;;;;;-141.50;100.00;63355.56;4911515;29;20063;-78
2022/02/23 03:32:58;;;;;;;10.88;1.85;;;;;;;-141.50;100.00;63355.56;4913924;29;20067;-79
2022/02/23 03:35:27;;;;;;;18.23;2.13;;;;;;;-141.50;100.00;63355.56;4914931;29;20052;-78
2022/02/23 03:37:55;;;;;;;12.85;1.77;;;;;;;-141.50;100.00;63355.56;4911117;29;20385;-77
2022/02/23 03:40:22;;;;;;;19.80;2.40;;;;;;;-141.50;100.00;63355.56;4910605;29;20060;-79
2022/02/23 03:42:49;;;;;;;18.60;2.20;;;;;;;-141.50;100.00;63355.56;4911690;29;20059;-78
2022/02/23 03:45:16;;;;;;;17.30;2.03;;;;;;;-141.50;100.00;63355.56;4910605;29;20054;-79
2022/02/23 03:47:43;;;;;;;16.13;1.92;;;;;;;-141.50;100.00;63355.56;4911533;29;20062;-77
2022/02/23 03:50:09;;;;;;;16.73;2.22;;;;;;;-141.50;100.00;63355.56;4912784;29;20064;-78
2022/02/23 03:52:40;;;;;;;18.42;1.90;;;;;;;-141.50;100.00;63355.56;4913798;29;20501;-79
2022/02/23 03:55:08;;;;;;;16.08;1.42;;;;;;;-141.50;100.00;63355.56;4914177;29;20063;-78
2022/02/23 03:57:35;;;;;;;13.50;2.00;;;;;;;-141.50;100.00;63355.56;4913143;29;20402;-80
2022/02/23 04:00:04;;;;;;;17.15;1.77;;;;;;;-141.50;100.00;63355.56;4910313;29;20517;-78
2022/02/23 04:02:31;;;;;;;18.02;1.98;;;;;;;-141.50;100.00;63355.56;4912072;29;20414;-77
2022/02/23 04:04:58;;;;;;;25.98;2.22;;;;;;;-141.50;100.00;63355.56;4914751;29;20087;-78
2022/02/23 04:07:25;;;;;;;19.85;2.45;;;;;;;-141.50;100.00;63355.56;4917116;29;20386;-80
2022/02/23 04:09:51;;;;;;;24.95;3.13;;;;;;;-141.50;100.00;63355.56;4917267;29;20062;-79
2022/02/23 04:12:19;;;;;;;19.60;2.25;;;;;;;-141.50;100.00;63355.56;4915351;29;20059;-78
2022/02/23 04:14:46;;;;;;;16.42;2.05;;;;;;;-141.50;100.00;63355.56;4913460;29;20453;-78
2022/02/23 04:17:13;;;;;;;29.70;3.13;;;;;;;-141.50;100.00;63355.56;4915317;29;20111;-78
2022/02/23 04:19:39;;;;;;;13.70;1.80;;;;;;;-141.50;100.00;63355.56;4913933;29;20486;-78
2022/02/23 04:22:07;;;;;;;23.45;2.83;;;;;;;-141.50;100.00;63355.56;4913912;29;20040;-78
2022/02/23 04:24:33;;;;;;;18.58;2.53;;;;;;;-141.50;100.00;63355.56;4914288;29;20090;-79
2022/02/23 04:27:01;;;;;;;25.45;2.42;;;;;;;-141.50;100.00;63355.56;4915374;29;20417;-78
2022/02/23 04:29:28;;;;;;;25.60;3.53;;;;;;;-141.50;100.00;63355.56;4914842;29;20067;-79
2022/02/23 04:31:55;;;;;;;20.40;2.65;;;;;;;-141.50;100.00;63355.56;4914435;29;20523;-77
2022/02/23 04:34:22;;;;;;;18.50;2.47;;;;;;;-141.50;100.00;63355.56;4914993;29;20052;-78
2022/02/23 04:36:50;;;;;;;22.52;2.60;;;;;;;-141.50;100.00;63355.56;4917896;29;20087;-77
2022/02/23 04:39:26;;;;;;;26.27;3.00;;;;;;;-141.50;100.00;63355.56;4917083;29;20122;-77
2022/02/23 04:41:53;;;;;;;22.00;3.22;;;;;;;-141.50;100.00;63355.56;4912406;29;20044;-77
2022/02/23 04:44:20;;;;;;;22.50;2.70;;;;;;;-141.50;100.00;63355.56;4914297;29;20060;-77
2022/02/23 04:46:46;;;;;;;20.08;2.60;;;;;;;-141.50;100.00;63355.56;4915817;29;20059;-77
2022/02/23 04:49:13;;;;;;;22.08;2.67;;;;;;;-141.50;100.00;63355.56;4899073;29;20067;-79
2022/02/23 04:51:40;;;;;;;29.38;3.13;;;;;;;-141.50;100.00;63355.56;4914830;29;20059;-78
2022/02/23 04:54:06;;;;;;;20.85;2.50;;;;;;;-141.50;100.00;63355.56;4915345;29;20505;-77
2022/02/23 04:56:33;;;;;;;21.98;2.80;;;;;;;-141.50;100.00;63355.56;4914115;29;20051;-77
2022/02/23 04:58:59;;;;;;;30.52;3.88;;;;;;;-141.50;100.00;63355.56;4915076;29;20056;-77
2022/02/23 05:01:27;;;;;;;19.20;2.30;;;;;;;-141.50;100.00;63355.56;4914116;29;20052;-78
2022/02/23 05:03:53;;;;;;;24.60;2.50;;;;;;;-141.50;100.00;63355.56;4914453;29;20056;-79
2022/02/23 05:06:20;;;;;;;23.67;2.67;;;;;;;-141.50;100.00;63355.56;4916235;29;20056;-76
2022/02/23 05:08:47;;;;;;;22.27;2.45;;;;;;;-141.50;100.00;63355.56;4917470;29;20067;-77
2022/02/23 05:11:13;;;;;;;20.75;2.42;;;;;;;-141.50;100.00;63355.56;4911262;29;20476;-80
2022/02/23 05:13:40;;;;;;;24.10;3.63;;;;;;;-141.50;100.00;63355.56;4915078;29;20066;-78
2022/02/23 05:16:07;;;;;;;17.65;2.50;;;;;;;-141.50;100.00;63355.56;4913879;29;20056;-77
2022/02/23 05:18:33;;;;;;;30.45;3.45;;;;;;;-141.50;100.00;63355.56;4915012;29;20091;-77
2022/02/23 05:21:02;;;;;;;17.67;2.58;;;;;;;-141.50;100.00;63355.56;4915258;29;20221;-78
2022/02/23 05:23:28;;;;;;;18.60;2.30;;;;;;;-141.50;100.00;63355.56;4914148;29;20529;-78
2022/02/23 05:25:56;;;;;;;26.58;3.13;;;;;;;-141.50;100.00;63355.56;4913991;29;20412;-78
2022/02/23 05:28:24;;;;;;;21.88;2.70;;;;;;;-141.50;100.00;63355.56;4913613;29;20060;-77
2022/02/23 05:30:51;;;;;;;18.20;2.10;;;;;;;-141.50;100.00;63355.56;4914018;29;20092;-79
2022/02/23 05:33:21;;;;;;;18.38;2.88;;;;;;;-141.50;100.00;63355.56;4915449;29;20052;-78
2022/02/23 05:35:53;;;;;;;20.88;2.60;;;;;;;-141.50;100.00;63355.56;4920850;29;20043;-79
2022/02/23 05:38:20;;;;;;;22.60;2.70;;;;;;;-141.50;100.00;63355.56;4929972;29;20047;-78
2022/02/23 05:40:47;;;;;;;22.95;2.20;;;;;;;-141.50;100.00;63355.56;4928336;29;20044;-77
2022/02/23 05:43:13;;;;;;;22.58;2.88;;;;;;;-141.50;100.00;63355.56;4914874;29;20045;-77
2022/02/23 05:45:40;;;;;;;19.17;3.03;;;;;;;-141.50;100.00;63355.56;4914885;29;20056;-77
2022/02/23 05:48:08;;;;;;;13.40;1.90;;;;;;;-141.50;100.00;63355.56;4914052;29;20224;-78
2022/02/23 05:50:35;;;;;;;20.65;2.47;;;;;;;-141.50;100.00;63355.56;4896595;29;20048;-78
2022/02/23 05:53:01;;;;;;;20.67;2.58;;;;;;;-141.50;100.00;63355.56;4912908;29;20083;-77
2022/02/23 05:55:28;;;;;;;20.67;2.60;;;;;;;-141.50;100.00;63355.56;4912851;29;20068;-77
2022/02/23 05:57:55;;;;;;;20.60;2.78;;;;;;;-141.50;100.00;63355.56;4912749;29;20060;-77
2022/02/23 06:00:21;;;;;;;29.65;3.42;;;;;;;-141.50;100.00;63355.56;4911509;29;20133;-76
2022/02/23 06:02:48;;;;;;;19.70;2.40;;;;;;;-141.50;100.00;63355.56;4913059;29;20048;-77
2022/02/23 06:05:15;;;;;;;23.10;2.97;;;;;;;-141.50;100.00;63355.56;4913547;29;20493;-78
2022/02/23 06:07:41;;;;;;;21.20;2.58;;;;;;;-141.50;100.00;63355.56;4913357;29;20131;-78
2022/02/23 06:10:09;;;;;;;13.45;2.47;;;;;;;-141.50;100.00;63355.56;4912802;29;20067;-78
2022/02/23 06:12:35;;;;;;;18.50;2.72;;;;;;;-141.50;100.00;63355.56;4912565;29;20040;-78
2022/02/23 06:15:02;;;;;;;22.50;3.03;;;;;;;-141.50;100.00;63355.56;4912997;29;20382;-78
2022/02/23 06:17:29;;;;;;;28.70;3.38;;;;;;;-141.50;100.00;63355.56;4912915;29;20405;-78
2022/02/23 06:19:56;;;;;;;23.30;2.33;;;;;;;-141.50;100.00;63355.56;4911471;29;20060;-78
2022/02/23 06:22:23;;;;;;;25.13;2.90;;;;;;;-141.50;100.00;63355.56;4915100;29;20044;-78
2022/02/23 06:24:50;;;;;;;24.60;2.58;;;;;;;-141.50;100.00;63355.56;4898541;29;20080;-79
2022/02/23 06:27:19;;;;;;;25.05;3.13;;;;;;;-141.50;100.00;63355.56;4913635;29;20055;-79
2022/02/23 06:29:46;;;;;;;22.20;2.42;;;;;;;-141.50;100.00;63355.56;4914415;29;20052;-78
2022/02/23 06:32:13;;;;;;;21.20;2.80;;;;;;;-141.50;100.00;63355.56;4913115;29;20075;-78
2022/02/23 06:34:39;;;;;;;25.80;2.40;;;;;;;-141.50;100.00;63355.56;4914120;29;20091;-77
2022/02/23 06:37:06;;;;;;;23.67;2.97;;;;;;;-141.50;100.00;63355.56;4915553;29;20060;-79
2022/02/23 06:39:38;;;;;;;27.73;3.45;;;;;;;-141.50;100.00;63355.56;4915939;29;20559;-77
2022/02/23 06:42:05;;;;;;;21.85;2.83;;;;;;;-141.50;100.00;63355.56;4915390;29;20048;-79
2022/02/23 06:44:32;;;;;;;26.55;2.70;;;;;;;-141.50;100.00;63355.56;4916901;29;20435;-79
2022/02/23 06:47:00;;;;;;;28.77;3.13;;;;;;;-141.50;100.00;63355.56;4916694;29;20076;-79
2022/02/23 06:49:31;;;;;;;21.52;2.78;;;;;;;-141.50;100.00;63355.56;4919168;29;20146;-79
2022/02/23 06:52:00;;;;;;;19.55;2.60;;;;;;;-141.50;100.00;63355.56;4917687;29;20080;-78
2022/02/23 06:54:29;;;;;;;25.30;2.97;;;;;;;-141.50;100.00;63355.56;4915263;29;20154;-78
2022/02/23 06:56:56;;;;;;;21.15;3.00;;;;;;;-141.50;100.00;63355.56;4914787;29;20048;-79
2022/02/23 06:59:23;;;;;;;20.98;2.58;;;;;;;-141.50;100.00;63355.56;4915818;29;20064;-76
2022/02/23 07:01:50;;;;;;;27.95;3.00;;;;;;;-141.50;100.00;63355.56;4912565;29;20055;-78
2022/02/23 07:04:17;;;;;;;21.13;2.78;;;;;;;-141.50;100.00;63355.56;4914283;29;20055;-78
2022/02/23 07:06:43;;;;;;;22.10;2.83;;;;;;;-141.50;100.00;63355.56;4912733;29;20494;-78
2022/02/23 07:09:10;;;;;;;25.77;2.95;;;;;;;-141.50;100.00;63355.56;4912251;29;20044;-78
2022/02/23 07:11:37;;;;;;;15.88;2.47;;;;;;;-141.50;100.00;63355.56;4910597;29;20157;-78
2022/02/23 07:14:05;;;;;;;22.05;2.45;;;;;;;-141.50;100.00;63355.56;4911872;29;20056;-79
2022/02/23 07:16:33;;;;;;;14.48;2.25;;;;;;;-141.50;100.00;63355.56;4913021;29;20060;-78
2022/02/23 07:19:00;;;;;;;23.50;2.60;;;;;;;-141.50;100.00;63355.56;4916570;29;20056;-80
2022/02/23 07:21:27;;;;;;;20.95;2.72;;;;;;;-141.50;100.00;63355.56;4921593;29;20149;-78
2022/02/23 07:23:53;;;;;;;16.77;2.53;;;;;;;-141.50;100.00;63355.56;4922974;29;20520;-77
2022/02/23 07:26:20;;;;;;;17.42;2.58;;;;;;;-141.50;100.00;63355.56;4914722;29;20056;-77
2022/02/23 07:28:47;;;;;;;28.10;3.25;;;;;;;-141.50;100.00;63355.56;4915378;29;20058;-78
2022/02/23 07:31:18;;;;;;;20.55;2.90;;;;;;;-141.50;100.00;63355.56;4915582;29;20064;-77
2022/02/23 07:33:46;;;;;;;22.27;2.70;;;;;;;-141.50;100.00;63355.56;4912605;29;20485;-77
2022/02/23 07:36:14;;;;;;;24.02;2.92;;;;;;;-141.50;100.00;63355.56;4913161;29;20052;-76
2022/02/23 07:38:42;;;;;;;23.90;3.00;;;;;;;-141.50;100.00;63355.56;4912885;29;20048;-77
2022/02/23 07:41:11;;;;;;;25.15;3.25;;;;;;;-141.50;100.00;63355.56;4915131;29;20142;-76
2022/02/23 07:43:58;;;;;;;20.00;2.80;;;;;;;-141.50;100.00;63355.56;4918900;29;20397;-78
2022/02/23 07:46:27;;;;;;;18.60;2.38;;;;;;;-141.50;100.00;63355.56;4919602;29;20270;-78
2022/02/23 07:49:00;;;;;;;18.40;3.15;;;;;;;-141.50;100.00;63355.56;4903024;29;20373;-77
2022/02/23 07:51:28;;;;;;;14.80;2.30;;;;;;;-141.50;100.00;63355.56;4917901;29;20418;-76
2022/02/23 07:53:55;;;;;;;25.13;2.97;;;;;;;-141.50;100.00;63355.56;4917679;29;20115;-78
2022/02/23 07:56:22;;;;;;;18.83;2.63;;;;;;;-141.50;100.00;63355.56;4919240;29;20056;-77
2022/02/23 07:58:50;;;;;;;22.88;2.78;;;;;;;-141.50;100.00;63355.56;4920063;29;20109;-79
2022/02/23 08:01:30;;;;;;;18.80;2.53;;;;;;;-141.50;100.00;63355.56;4918190;29;20055;-77
2022/02/23 08:03:58;;;;;;;23.48;3.50;;;;;;;-141.50;100.00;63355.56;4919626;29;20052;-78
2022/02/23 08:06:25;;;;;;;16.90;2.70;;;;;;;-141.50;100.00;63355.56;4919552;29;20124;-77
2022/02/23 08:08:53;;;;;;;19.50;2.90;;;;;;;-141.50;100.00;63355.56;4920931;29;20044;-78
2022/02/23 08:11:20;;;;;;;18.77;3.03;;;;;;;-141.50;100.00;63355.56;4918970;29;20048;-76
2022/02/23 08:13:48;;;;;;;17.83;2.83;;;;;;;-141.50;100.00;63355.56;4918944;29;20098;-78
2022/02/23 08:21:57;;;;;;;16.75;2.45;;;;;;;-141.50;100.00;63355.56;4917905;29;20052;-77
2022/02/23 08:24:24;;;;;;;14.38;2.50;;;;;;;-141.50;100.00;63355.56;4917187;29;20051;-78
2022/02/23 08:26:50;;;;;;;22.42;2.53;;;;;;;-141.50;100.00;63355.56;4918274;29;20336;-78
2022/02/23 08:29:17;;;;;;;22.38;3.00;;;;;;;-141.50;100.00;63355.56;4916742;29;20058;-78
2022/02/23 08:31:44;;;;;;;14.85;2.45;;;;;;;-141.50;100.00;63355.56;4919542;29;20460;-78
2022/02/23 08:34:11;;;;;;;11.07;2.42;;;;;;;-141.50;100.00;63355.56;4917334;29;20060;-78
2022/02/23 08:36:38;;;;;;;21.23;2.60;;;;;;;-141.50;100.00;63355.56;4918815;29;20048;-78
2022/02/23 08:39:06;;;;;;;15.20;2.08;;;;;;;-141.50;100.00;63355.56;4919298;29;20055;-78
2022/02/23 08:41:34;;;;;;;19.20;3.10;;;;;;;-141.50;100.00;63355.56;4918430;29;20060;-78
2022/02/23 08:44:18;;;;;;;18.25;2.17;;;;;;;-141.50;100.00;63355.56;4919940;29;20060;-78
2022/02/23 08:46:45;;;;;;;18.67;2.72;;;;;;;-141.50;100.00;63355.56;4923551;29;20159;-78
2022/02/23 08:49:12;;;;;;;19.05;2.17;;;;;;;-141.50;100.00;63355.56;4923221;29;20052;-78
2022/02/23 08:51:46;;;;;;;12.68;1.83;;;;;;;-141.50;100.00;63355.56;4932773;29;20078;-77
2022/02/23 08:54:18;;;;;;;14.32;2.42;;;;;;;-141.50;100.00;63355.56;4929696;29;20058;-77
2022/02/23 08:56:46;;;;;;;16.48;2.30;;;;;;;-141.50;100.00;63355.56;4914779;29;20058;-78
2022/02/23 08:59:13;;;;;;;15.05;2.50;;;;;;;-141.50;100.00;63355.56;4913714;29;20133;-79
2022/02/23 09:01:41;;;;;;;18.15;3.47;;;;;;;-141.50;100.00;63355.56;4914398;29;20055;-79
2022/02/23 09:04:08;;;;;;;12.07;2.55;;;;;;;-141.50;100.00;63355.56;4914260;29;20150;-78
2022/02/23 09:06:36;;;;;;;15.40;2.50;;;;;;;-141.50;100.00;63355.56;4913539;29;20095;-77
2022/02/23 09:09:05;;;;;;;15.52;2.50;;;;;;;-141.50;100.00;63355.56;4917584;29;20048;-78
2022/02/23 09:11:32;;;;;;;22.38;2.40;;;;;;;-141.50;100.00;63355.56;4915254;29;20067;-78
2022/02/23 09:14:02;;;;;;;18.90;2.80;;;;;;;-141.50;100.00;63355.56;4917406;29;20048;-79
2022/02/23 09:16:30;;;;;;;12.43;2.33;;;;;;;-141.50;100.00;63355.56;4919026;29;20095;-79
2022/02/23 09:18:58;;;;;;;21.83;2.75;;;;;;;-141.50;100.00;63355.56;4920169;29;20052;-79
2022/02/23 09:21:25;;;;;;;13.95;1.83;;;;;;;-141.50;100.00;63355.56;4914235;29;20040;-76
2022/02/23 09:23:51;;;;;;;16.65;2.60;;;;;;;-141.50;100.00;63355.56;4913236;29;20056;-78
2022/02/23 09:26:19;;;;;;;14.13;2.35;;;;;;;-141.50;100.00;63355.56;4912310;29;20064;-77
2022/02/23 09:28:47;;;;;;;16.25;2.80;;;;;;;-141.50;100.00;63355.56;4913642;29;20898;-78
2022/02/23 09:31:14;;;;;;;13.90;2.20;;;;;;;-141.50;100.00;63355.56;4913686;29;20060;-78
2022/02/23 09:33:41;;;;;;;9.82;1.88;;;;;;;-141.50;100.00;63355.56;4915151;29;20094;-80
2022/02/23 09:36:14;;;;;;;18.02;2.65;;;;;;;-141.50;100.00;63355.56;4915067;29;20074;-79
2022/02/23 09:38:41;;;;;;;18.20;2.50;;;;;;;-141.50;100.00;63355.56;4915504;29;20084;-79
2022/02/23 09:41:10;;;;;;;14.95;2.30;;;;;;;-141.50;100.00;63355.56;4913189;29;20306;-77
2022/02/23 09:43:38;;;;;;;13.98;2.13;;;;;;;-141.50;100.00;63355.56;4914091;29;20052;-79
2022/02/23 09:46:08;;;;;;;24.48;2.92;;;;;;;-141.50;100.00;63355.56;4913197;29;20067;-77
2022/02/23 09:48:35;;;;;;;17.55;2.40;;;;;;;-141.50;100.00;63355.56;4914859;29;20056;-79
2022/02/23 09:51:04;;;;;;;16.77;2.40;;;;;;;-141.50;100.00;63355.56;4913480;29;20076;-79
2022/02/23 09:53:31;;;;;;;15.45;2.47;;;;;;;-141.50;100.00;63355.56;4914502;29;20513;-78
2022/02/23 09:55:59;;;;;;;7.13;2.03;;;;;;;-141.50;100.00;63355.56;4915091;29;20111;-78
2022/02/23 09:58:27;;;;;;;15.02;2.20;;;;;;;-141.50;100.00;63355.56;4914143;29;20075;-78
2022/02/23 10:00:57;;;;;;;11.40;2.13;;;;;;;-141.50;100.00;63355.56;4915238;29;20086;-79
2022/02/23 10:03:27;;;;;;;10.48;2.20;;;;;;;-141.50;100.00;63355.56;4915106;29;20108;-78
2022/02/23 10:05:54;;;;;;;11.27;1.92;;;;;;;-141.50;100.00;63355.56;4916026;29;20055;-77
2022/02/23 10:08:32;;;;;;;10.02;1.65;;;;;;;-141.50;100.00;63355.56;4915772;29;20332;-79
2022/02/23 10:11:03;;;;;;;10.32;2.00;;;;;;;-141.50;100.00;63355.56;4913262;29;20322;-78
2022/02/23 10:13:32;;;;;;;14.10;1.83;;;;;;;-141.50;100.00;63355.56;4915931;29;20040;-79
2022/02/23 10:15:59;;;;;;;13.30;2.20;;;;;;;-141.50;100.00;63355.56;4915135;29;20044;-78
2022/02/23 10:18:46;;;;;;;11.77;2.20;;;;;;;-141.50;100.00;63355.56;4914298;29;20449;-78
2022/02/23 10:21:18;;;;;;;14.68;2.30;;;;;;;-141.50;100.00;63355.56;4912757;29;20072;-78
2022/02/23 10:23:46;;;;;;;14.55;2.13;;;;;;;-141.50;100.00;63355.56;4915051;29;20600;-78
2022/02/23 10:26:16;;;;;;;11.98;2.60;;;;;;;-141.50;100.00;63355.56;4911661;29;20544;-79
2022/02/23 10:28:42;;;;;;;10.00;2.10;;;;;;;-141.50;100.00;63355.56;4913596;29;20648;-78
2022/02/23 10:31:15;;;;;;;16.55;2.38;;;;;;;-141.50;100.00;63355.56;4913458;29;20066;-78
2022/02/23 10:33:43;;;;;;;8.30;1.98;;;;;;;-141.50;100.00;63355.56;4914417;29;20044;-78
2022/02/23 10:36:33;;;;;;;13.27;2.10;;;;;;;-141.50;100.00;63355.56;4915593;29;20052;-77
2022/02/23 10:39:09;;;;;;;11.48;1.90;;;;;;;-141.50;100.00;63355.56;4916232;29;20052;-78
2022/02/23 10:41:41;;;;;;;11.77;2.05;;;;;;;-141.50;100.00;63355.56;4911626;29;20556;-79
2022/02/23 10:44:09;;;;;;;11.50;2.13;;;;;;;-141.50;100.00;63355.56;4912080;29;20055;-78
2022/02/23 10:46:42;;;;;;;10.90;2.03;;;;;;;-141.50;100.00;63355.56;4914121;29;20460;-77
2022/02/23 10:49:09;;;;;;;12.55;2.35;;;;;;;-141.50;100.00;63355.56;4912589;29;20051;-79
2022/02/23 10:51:38;;;;;;;10.48;2.10;;;;;;;-141.50;100.00;63355.56;4914167;29;20056;-77
2022/02/23 10:54:05;;;;;;;10.30;1.90;;;;;;;-141.50;100.00;63355.56;4896699;29;20592;-79
2022/02/23 10:56:37;;;;;;;12.50;1.98;;;;;;;-141.50;100.00;63355.56;4916423;29;20056;-80
2022/02/23 10:59:11;;;;;;;6.95;1.70;;;;;;;-141.50;100.00;63355.56;4914697;29;20052;-79
2022/02/23 11:01:40;;;;;;;16.27;2.00;;;;;;;-141.50;100.00;63355.56;4916016;29;20056;-78
2022/02/23 11:04:08;;;;;;;12.40;2.28;;;;;;;-141.50;100.00;63355.56;4919298;29;20087;-78
2022/02/23 11:06:36;;;;;;;9.75;2.30;;;;;;;-141.50;100.00;63355.56;4914569;29;20116;-79
2022/02/23 11:09:05;;;;;;;12.32;2.30;;;;;;;-141.50;100.00;63355.56;4915108;29;20086;-77
2022/02/23 11:11:33;;;;;;;7.50;1.58;;;;;;;-141.50;100.00;63355.56;4911586;29;20162;-77
2022/02/23 11:14:01;;;;;;;11.10;2.00;;;;;;;-141.50;100.00;63355.56;4913447;29;20044;-78